Dera Ismail Khan Weather



Dera Ismail Khan's Current Weather

Temprature 15.07o overcast clouds

overcast clouds

Rain: 0 %

Min Temprature15.07o
Max Temprature15.07o
Humidity44
Wind Speed1.56 m/h
Sun Rise07:06:45
Sun Set17:13:05
Current Time: 12-Dec-2019 01:29:42
Lat/Lon: 31.83, 70.91




Dera Ismail Khan's Geo Location



Dera Ismail Khan's Weather Forecast

Time Overall Temp Min Temp Max Temp Humidity Wind Speed Rain
12-Dec-2019 (Thu)
02:00:00 overcast clouds 15.070 15.070 15.070 44 1.56 m/h 0 %
05:00:00 overcast clouds 13.930 13.930 13.930 47 1.01 m/h 0 %
08:00:00 overcast clouds 15.290 15.290 15.290 44 2.5 m/h 0 %
11:00:00 overcast clouds 17.690 17.690 17.690 39 1.8 m/h 0 %
14:00:00 overcast clouds 18.530 18.530 18.530 37 1.81 m/h 0 %
17:00:00 light rain 15.350 15.350 15.350 54 2.17 m/h 19 %
20:00:00 overcast clouds 13.840 13.840 13.840 61 1.97 m/h 0 %
23:00:00 overcast clouds 14.140 14.140 14.140 62 1.53 m/h 0 %
13-Dec-2019 (Fri)
02:00:00 overcast clouds 13.170 13.170 13.170 66 1.84 m/h 0 %
05:00:00 broken clouds 10.920 10.920 10.920 75 1.1 m/h 0 %
08:00:00 clear sky 11.840 11.840 11.840 69 1.17 m/h 0 %
11:00:00 clear sky 15.850 15.850 15.850 52 1.93 m/h 0 %
14:00:00 clear sky 18.060 18.060 18.060 42 1.98 m/h 0 %
17:00:00 clear sky 16.030 16.030 16.030 48 1.29 m/h 0 %
20:00:00 clear sky 13.210 13.210 13.210 57 0.56 m/h 0 %
23:00:00 clear sky 12.960 12.960 12.960 59 2.18 m/h 0 %
14-Dec-2019 (Sat)
02:00:00 clear sky 10.850 10.850 10.850 69 0.81 m/h 0 %
05:00:00 clear sky 10.580 10.580 10.580 71 1.54 m/h 0 %
08:00:00 clear sky 11.930 11.930 11.930 67 2.33 m/h 0 %
11:00:00 clear sky 16.880 16.880 16.880 49 1.39 m/h 0 %
14:00:00 broken clouds 18.740 18.740 18.740 43 0.73 m/h 0 %
17:00:00 broken clouds 17.670 17.670 17.670 47 2.09 m/h 0 %
20:00:00 broken clouds 14.670 14.670 14.670 57 2.09 m/h 0 %
23:00:00 broken clouds 13.030 13.030 13.030 63 0.91 m/h 0 %
15-Dec-2019 (Sun)
02:00:00 overcast clouds 12.020 12.020 12.020 66 0.9 m/h 0 %
05:00:00 broken clouds 10.730 10.730 10.730 72 0.94 m/h 0 %
08:00:00 clear sky 12.290 12.290 12.290 66 0.95 m/h 0 %
11:00:00 clear sky 17.930 17.930 17.930 42 1.94 m/h 0 %
14:00:00 clear sky 19.830 19.830 19.830 31 2.85 m/h 0 %
17:00:00 clear sky 17.310 17.310 17.310 37 2.32 m/h 0 %
20:00:00 clear sky 13.820 13.820 13.820 47 1.26 m/h 0 %
23:00:00 clear sky 11.970 11.970 11.970 53 0.58 m/h 0 %
16-Dec-2019 (Mon)
02:00:00 clear sky 12.170 12.170 12.170 50 1.99 m/h 0 %
05:00:00 clear sky 11.620 11.620 11.620 50 2.05 m/h 0 %
08:00:00 clear sky 12.430 12.430 12.430 48 1.54 m/h 0 %
11:00:00 clear sky 18.990 18.990 18.990 29 1.68 m/h 0 %
14:00:00 clear sky 20.760 20.760 20.760 19 3.15 m/h 0 %
17:00:00 clear sky 17.440 17.440 17.440 24 2.54 m/h 0 %
20:00:00 clear sky 13.780 13.780 13.780 31 1.46 m/h 0 %
23:00:00 clear sky 14.300 14.300 14.300 24 2.85 m/h 0 %

Famous Cities (61)